METAR AND TAF INFORMATION
METAR FOR VEGT
ADDS - METARS form results

(0120 UTC 25 September 2022)
Data provider http://aviationweather.gov/metar/data/
 
METAR text: VEGT 250100Z 00000KT 3000 BR SCT018 FEW025CB BKN100 27/26 Q1008 NOSIG
Conditions at: VEGT (GAUHATI (IN-AFB), IN) observed 0100 UTC 25 September 2022
Temperature: 27.0°C (81°F)
Dewpoint: 26.0°C (79°F) [RH = 94%]
Pressure (altimeter): 29.76 inches Hg (1008.0 mb)
Winds: calm
Visibility: 1.86 miles (2.99 km)
Ceiling: 10000 feet AGL
Clouds: scattered clouds at 1800 feet AGL
few clouds at 2500 feet AGL
broken clouds at 10000 feet AGL
Weather: BR  (mist)

METAR text: VEGT 250030Z 00000KT 3000 BR SCT018 FEW025CB BKN100 26/26 Q1007 NOSIG
Conditions at: VEGT (GAUHATI (IN-AFB), IN) observed 0030 UTC 25 September 2022
Temperature: 26.0°C (79°F)
Dewpoint: 26.0°C (79°F) [RH = 100%]
Pressure (altimeter): 29.73 inches Hg (1007.0 mb)
Winds: calm
Visibility: 1.86 miles (2.99 km)
Ceiling: 10000 feet AGL
Clouds: scattered clouds at 1800 feet AGL
few clouds at 2500 feet AGL
broken clouds at 10000 feet AGL
Weather: BR  (mist)

Forecast for: VEGT (GAUHATI (IN-AFB), IN)
Text: TAF VEGT 242300Z 2500/2509 00000KT 3000 -RA BR SCT018 BKN100
Forecast period: 0000 to 0300 UTC 25 September 2022
Forecast type: FROM: standard forecast or significant change
Winds: calm
Visibility: 1.86 miles (2.99 km)
Ceiling: 10000 feet AGL
Clouds: scattered clouds at 1800 feet AGL
broken clouds at 10000 feet AGL
Weather: -RA BR  (light rain, mist)
Text: BECMG 2503/2505 25005KT 5000 HZ SCT018 SCT100
Forecast period: 0300 to 0900 UTC 25 September 2022
Forecast type: BECOMING: Conditions expected to become as follows by 0500 UTC 25 September 2022
Winds: from the WSW (250 degrees) at 6 MPH (5 knots; 2.6 m/s)
Visibility: 3 miles (5 km)
Ceiling: at least 12,000 feet AGL
Clouds: scattered clouds at 1800 feet AGL
scattered clouds at 10000 feet AGL
Weather: HZ  (haze)

 AIRPORT MAP

 RUNWAY INFORMATION
Runway 02 Runway length 9000 ft Runway width 150 ft
Runway elevation 162 ft Runway displaced threshold 0 ft Runway heading 23
Runway 20 Runway length 9000 ft Runway width 150 ft
Runway elevation 162 ft Runway displaced threshold 0 ft Runway heading 203

 AIRPORT FREQUENCIES
Type APP Name APP Frequency 123.3 MHZ
Type ATIS Name ATIS Frequency 126.6 MHZ
Type GND Name GND Frequency 121.9 MHZ
Type TWR Name TWR Frequency 118.75 MHZ

 AIRPORT NEAR NAVIGATION AIDS
Type VOR-DME Name Barapani Frequency 116000 KHZ
Type VOR-DME Name Guwahati Frequency 117600 KHZ
Type NDB Name Guwahati Frequency 360 KHZ